sensor_id;sensor_type;location;lat;lon;timestamp;temperature;humidity
31783;DHT22;18351;47.560;9.708;2023-07-16T00:01:59;23.40;99.90
31783;DHT22;18351;47.560;9.708;2023-07-16T00:04:25;23.40;99.90
31783;DHT22;18351;47.560;9.708;2023-07-16T00:06:51;23.50;99.90
31783;DHT22;18351;47.560;9.708;2023-07-16T00:09:16;23.50;99.90
31783;DHT22;18351;47.560;9.708;2023-07-16T00:11:42;23.50;99.90
31783;DHT22;18351;47.560;9.708;2023-07-16T00:14:09;23.40;99.90
31783;DHT22;18351;47.560;9.708;2023-07-16T00:16:35;23.20;99.90
31783;DHT22;18351;47.560;9.708;2023-07-16T00:19:00;23.10;99.90
31783;DHT22;18351;47.560;9.708;2023-07-16T00:21:26;22.90;99.90
31783;DHT22;18351;47.560;9.708;2023-07-16T00:23:51;22.70;99.90
31783;DHT22;18351;47.560;9.708;2023-07-16T00:26:17;22.60;99.90
31783;DHT22;18351;47.560;9.708;2023-07-16T00:28:42;22.40;99.90
31783;DHT22;18351;47.560;9.708;2023-07-16T00:31:09;22.30;99.90
31783;DHT22;18351;47.560;9.708;2023-07-16T00:33:35;22.20;99.90
31783;DHT22;18351;47.560;9.708;2023-07-16T00:36:01;22.20;99.90
31783;DHT22;18351;47.560;9.708;2023-07-16T00:38:27;22.20;99.90
31783;DHT22;18351;47.560;9.708;2023-07-16T00:40:52;22.10;99.90
31783;DHT22;18351;47.560;9.708;2023-07-16T00:43:18;22.10;99.90
31783;DHT22;18351;47.560;9.708;2023-07-16T00:45:45;22.10;99.90
31783;DHT22;18351;47.560;9.708;2023-07-16T00:48:11;22.10;99.90
31783;DHT22;18351;47.560;9.708;2023-07-16T00:50:39;22.10;99.90
31783;DHT22;18351;47.560;9.708;2023-07-16T00:53:08;22.10;99.90
31783;DHT22;18351;47.560;9.708;2023-07-16T00:55:35;22.10;99.90
31783;DHT22;18351;47.560;9.708;2023-07-16T00:58:03;22.10;99.90
31783;DHT22;18351;47.560;9.708;2023-07-16T01:00:31;22.20;99.90
31783;DHT22;18351;47.560;9.708;2023-07-16T01:02:57;22.20;99.90
31783;DHT22;18351;47.560;9.708;2023-07-16T01:05:24;22.10;99.90
31783;DHT22;18351;47.560;9.708;2023-07-16T01:07:59;22.10;99.90
31783;DHT22;18351;47.560;9.708;2023-07-16T01:10:27;22.00;99.90
31783;DHT22;18351;47.560;9.708;2023-07-16T01:12:55;22.00;99.90
31783;DHT22;18351;47.560;9.708;2023-07-16T01:15:21;22.00;99.90
31783;DHT22;18351;47.560;9.708;2023-07-16T01:17:47;21.90;99.90
31783;DHT22;18351;47.560;9.708;2023-07-16T01:20:12;21.90;99.90
31783;DHT22;18351;47.560;9.708;2023-07-16T01:25:29;21.70;99.90
31783;DHT22;18351;47.560;9.708;2023-07-16T01:30:37;21.60;99.90
31783;DHT22;18351;47.560;9.708;2023-07-16T01:33:05;21.60;99.90
31783;DHT22;18351;47.560;9.708;2023-07-16T01:35:31;21.50;99.90
31783;DHT22;18351;47.560;9.708;2023-07-16T01:37:57;21.40;99.90
31783;DHT22;18351;47.560;9.708;2023-07-16T01:40:23;21.30;99.90
31783;DHT22;18351;47.560;9.708;2023-07-16T01:42:48;21.00;99.90
31783;DHT22;18351;47.560;9.708;2023-07-16T01:45:14;20.80;99.90
31783;DHT22;18351;47.560;9.708;2023-07-16T01:47:44;20.50;99.90
31783;DHT22;18351;47.560;9.708;2023-07-16T01:50:11;20.20;99.90
31783;DHT22;18351;47.560;9.708;2023-07-16T01:52:36;19.70;99.90
31783;DHT22;18351;47.560;9.708;2023-07-16T01:55:02;19.40;99.90
31783;DHT22;18351;47.560;9.708;2023-07-16T01:57:27;19.30;99.90
31783;DHT22;18351;47.560;9.708;2023-07-16T01:59:53;19.20;99.90
31783;DHT22;18351;47.560;9.708;2023-07-16T02:02:18;19.10;99.90
31783;DHT22;18351;47.560;9.708;2023-07-16T02:04:44;19.10;99.90
31783;DHT22;18351;47.560;9.708;2023-07-16T02:07:10;19.10;99.90
31783;DHT22;18351;47.560;9.708;2023-07-16T02:09:35;19.10;99.90
31783;DHT22;18351;47.560;9.708;2023-07-16T02:12:01;19.10;99.90
31783;DHT22;18351;47.560;9.708;2023-07-16T02:14:26;19.10;99.90
31783;DHT22;18351;47.560;9.708;2023-07-16T02:16:52;19.10;99.90
31783;DHT22;18351;47.560;9.708;2023-07-16T02:19:17;19.10;99.90
31783;DHT22;18351;47.560;9.708;2023-07-16T02:21:43;19.10;99.90
31783;DHT22;18351;47.560;9.708;2023-07-16T02:24:09;19.10;99.90
31783;DHT22;18351;47.560;9.708;2023-07-16T02:26:34;19.10;99.90
31783;DHT22;18351;47.560;9.708;2023-07-16T02:29:00;19.10;99.90
31783;DHT22;18351;47.560;9.708;2023-07-16T02:31:25;19.20;99.90
31783;DHT22;18351;47.560;9.708;2023-07-16T02:33:51;19.20;99.90
31783;DHT22;18351;47.560;9.708;2023-07-16T02:36:16;19.10;99.90
31783;DHT22;18351;47.560;9.708;2023-07-16T02:38:42;19.20;99.90
31783;DHT22;18351;47.560;9.708;2023-07-16T02:41:07;19.10;99.90
31783;DHT22;18351;47.560;9.708;2023-07-16T02:43:33;19.00;99.90
31783;DHT22;18351;47.560;9.708;2023-07-16T02:45:58;19.00;99.90
31783;DHT22;18351;47.560;9.708;2023-07-16T02:48:24;18.80;99.90
31783;DHT22;18351;47.560;9.708;2023-07-16T02:50:50;18.80;99.90
31783;DHT22;18351;47.560;9.708;2023-07-16T02:53:15;18.80;99.90
31783;DHT22;18351;47.560;9.708;2023-07-16T02:55:41;18.90;99.90
31783;DHT22;18351;47.560;9.708;2023-07-16T02:58:06;18.90;99.90
31783;DHT22;18351;47.560;9.708;2023-07-16T03:00:32;18.90;99.90
31783;DHT22;18351;47.560;9.708;2023-07-16T03:02:58;19.00;99.90
31783;DHT22;18351;47.560;9.708;2023-07-16T03:05:24;19.00;99.90
31783;DHT22;18351;47.560;9.708;2023-07-16T03:07:50;19.10;99.90
31783;DHT22;18351;47.560;9.708;2023-07-16T03:10:16;19.00;99.90
31783;DHT22;18351;47.560;9.708;2023-07-16T03:12:41;19.10;99.90
31783;DHT22;18351;47.560;9.708;2023-07-16T03:15:07;19.10;99.90
31783;DHT22;18351;47.560;9.708;2023-07-16T03:17:33;19.00;99.90
31783;DHT22;18351;47.560;9.708;2023-07-16T03:19:59;18.90;99.90
31783;DHT22;18351;47.560;9.708;2023-07-16T03:22:24;18.80;99.90
31783;DHT22;18351;47.560;9.708;2023-07-16T03:24:50;18.70;99.90
31783;DHT22;18351;47.560;9.708;2023-07-16T03:27:16;18.80;99.90
31783;DHT22;18351;47.560;9.708;2023-07-16T03:29:42;18.80;99.90
31783;DHT22;18351;47.560;9.708;2023-07-16T03:32:07;18.60;99.90
31783;DHT22;18351;47.560;9.708;2023-07-16T03:34:33;18.70;99.90
31783;DHT22;18351;47.560;9.708;2023-07-16T03:36:58;18.80;99.90
31783;DHT22;18351;47.560;9.708;2023-07-16T03:39:24;18.80;99.90
31783;DHT22;18351;47.560;9.708;2023-07-16T03:41:50;18.80;99.90
31783;DHT22;18351;47.560;9.708;2023-07-16T03:44:15;18.70;99.90
31783;DHT22;18351;47.560;9.708;2023-07-16T03:46:41;18.70;99.90
31783;DHT22;18351;47.560;9.708;2023-07-16T03:49:07;18.60;99.90
31783;DHT22;18351;47.560;9.708;2023-07-16T03:51:34;18.50;99.90
31783;DHT22;18351;47.560;9.708;2023-07-16T03:53:59;18.60;99.90
31783;DHT22;18351;47.560;9.708;2023-07-16T03:56:25;18.50;99.90
31783;DHT22;18351;47.560;9.708;2023-07-16T03:58:50;18.50;99.90
31783;DHT22;18351;47.560;9.708;2023-07-16T04:01:16;18.50;99.90
31783;DHT22;18351;47.560;9.708;2023-07-16T04:03:42;18.60;99.90
31783;DHT22;18351;47.560;9.708;2023-07-16T04:06:08;18.60;99.90
31783;DHT22;18351;47.560;9.708;2023-07-16T04:08:35;18.60;99.90
31783;DHT22;18351;47.560;9.708;2023-07-16T04:11:04;18.70;99.90
31783;DHT22;18351;47.560;9.708;2023-07-16T04:13:30;18.80;99.90
31783;DHT22;18351;47.560;9.708;2023-07-16T04:15:55;18.90;99.90
31783;DHT22;18351;47.560;9.708;2023-07-16T04:18:25;18.80;99.90
31783;DHT22;18351;47.560;9.708;2023-07-16T04:20:51;18.90;99.90
31783;DHT22;18351;47.560;9.708;2023-07-16T04:23:17;18.90;99.90
31783;DHT22;18351;47.560;9.708;2023-07-16T04:25:43;19.00;99.90
31783;DHT22;18351;47.560;9.708;2023-07-16T04:28:10;18.80;99.90
31783;DHT22;18351;47.560;9.708;2023-07-16T04:30:35;18.70;99.90
31783;DHT22;18351;47.560;9.708;2023-07-16T04:33:03;18.60;99.90
31783;DHT22;18351;47.560;9.708;2023-07-16T04:35:28;18.50;99.90
31783;DHT22;18351;47.560;9.708;2023-07-16T04:37:54;18.50;99.90
31783;DHT22;18351;47.560;9.708;2023-07-16T04:40:19;18.50;99.90
31783;DHT22;18351;47.560;9.708;2023-07-16T04:42:45;18.60;99.90
31783;DHT22;18351;47.560;9.708;2023-07-16T04:45:11;18.70;99.90
31783;DHT22;18351;47.560;9.708;2023-07-16T04:47:37;18.60;99.90
31783;DHT22;18351;47.560;9.708;2023-07-16T04:50:02;18.60;99.90
31783;DHT22;18351;47.560;9.708;2023-07-16T04:52:28;18.60;99.90
31783;DHT22;18351;47.560;9.708;2023-07-16T04:54:53;18.60;99.90
31783;DHT22;18351;47.560;9.708;2023-07-16T04:57:19;18.60;99.90
31783;DHT22;18351;47.560;9.708;2023-07-16T04:59:44;18.50;99.90
31783;DHT22;18351;47.560;9.708;2023-07-16T05:02:10;18.40;99.90
31783;DHT22;18351;47.560;9.708;2023-07-16T05:04:36;18.40;99.90
31783;DHT22;18351;47.560;9.708;2023-07-16T05:07:02;18.50;99.90
31783;DHT22;18351;47.560;9.708;2023-07-16T05:09:28;18.60;99.90
31783;DHT22;18351;47.560;9.708;2023-07-16T05:11:54;18.60;99.90
31783;DHT22;18351;47.560;9.708;2023-07-16T05:14:19;18.70;99.90
31783;DHT22;18351;47.560;9.708;2023-07-16T05:16:45;18.70;99.90
31783;DHT22;18351;47.560;9.708;2023-07-16T05:19:10;18.70;99.90
31783;DHT22;18351;47.560;9.708;2023-07-16T05:21:36;18.50;99.90
31783;DHT22;18351;47.560;9.708;2023-07-16T05:24:01;18.40;99.90
31783;DHT22;18351;47.560;9.708;2023-07-16T05:26:27;18.20;99.90
31783;DHT22;18351;47.560;9.708;2023-07-16T05:28:53;18.20;99.90
31783;DHT22;18351;47.560;9.708;2023-07-16T05:31:18;18.20;99.90
31783;DHT22;18351;47.560;9.708;2023-07-16T05:33:44;18.30;99.90
31783;DHT22;18351;47.560;9.708;2023-07-16T05:36:09;18.40;99.90
31783;DHT22;18351;47.560;9.708;2023-07-16T05:38:35;18.40;99.90
31783;DHT22;18351;47.560;9.708;2023-07-16T05:41:02;18.50;99.90
31783;DHT22;18351;47.560;9.708;2023-07-16T05:43:28;18.50;99.90
31783;DHT22;18351;47.560;9.708;2023-07-16T05:45:54;18.50;99.90
31783;DHT22;18351;47.560;9.708;2023-07-16T05:48:19;18.40;99.90
31783;DHT22;18351;47.560;9.708;2023-07-16T05:50:45;18.40;99.90
31783;DHT22;18351;47.560;9.708;2023-07-16T05:53:11;18.40;99.90
31783;DHT22;18351;47.560;9.708;2023-07-16T05:55:36;18.50;99.90
31783;DHT22;18351;47.560;9.708;2023-07-16T05:58:04;18.40;99.90
31783;DHT22;18351;47.560;9.708;2023-07-16T06:00:29;18.40;99.90
31783;DHT22;18351;47.560;9.708;2023-07-16T06:02:55;18.50;99.90
31783;DHT22;18351;47.560;9.708;2023-07-16T06:05:21;18.50;99.90
31783;DHT22;18351;47.560;9.708;2023-07-16T06:07:47;18.50;99.90
31783;DHT22;18351;47.560;9.708;2023-07-16T06:10:12;18.60;99.90
31783;DHT22;18351;47.560;9.708;2023-07-16T06:12:38;18.70;99.90
31783;DHT22;18351;47.560;9.708;2023-07-16T06:15:04;18.60;99.90
31783;DHT22;18351;47.560;9.708;2023-07-16T06:17:30;18.70;99.90
31783;DHT22;18351;47.560;9.708;2023-07-16T06:19:55;18.80;99.90
31783;DHT22;18351;47.560;9.708;2023-07-16T06:22:22;18.90;99.90
31783;DHT22;18351;47.560;9.708;2023-07-16T06:24:48;18.90;99.90
31783;DHT22;18351;47.560;9.708;2023-07-16T06:27:14;19.00;99.90
31783;DHT22;18351;47.560;9.708;2023-07-16T06:29:39;19.00;99.90
31783;DHT22;18351;47.560;9.708;2023-07-16T06:32:05;19.20;99.90
31783;DHT22;18351;47.560;9.708;2023-07-16T06:34:31;19.40;99.90
31783;DHT22;18351;47.560;9.708;2023-07-16T06:36:56;19.50;99.90
31783;DHT22;18351;47.560;9.708;2023-07-16T06:39:22;19.60;99.90
31783;DHT22;18351;47.560;9.708;2023-07-16T06:41:48;19.50;99.90
31783;DHT22;18351;47.560;9.708;2023-07-16T06:44:13;19.60;99.90
31783;DHT22;18351;47.560;9.708;2023-07-16T06:46:39;19.50;99.90
31783;DHT22;18351;47.560;9.708;2023-07-16T06:49:06;19.30;99.90
31783;DHT22;18351;47.560;9.708;2023-07-16T06:51:32;19.40;99.90
31783;DHT22;18351;47.560;9.708;2023-07-16T06:53:58;19.40;99.90
31783;DHT22;18351;47.560;9.708;2023-07-16T06:56:24;19.30;99.90
31783;DHT22;18351;47.560;9.708;2023-07-16T06:58:49;19.40;99.90
31783;DHT22;18351;47.560;9.708;2023-07-16T07:01:15;19.40;99.90
31783;DHT22;18351;47.560;9.708;2023-07-16T07:03:40;19.50;99.90
31783;DHT22;18351;47.560;9.708;2023-07-16T07:06:06;19.50;99.90
31783;DHT22;18351;47.560;9.708;2023-07-16T07:08:32;19.90;99.90
31783;DHT22;18351;47.560;9.708;2023-07-16T07:10:58;20.10;99.90
31783;DHT22;18351;47.560;9.708;2023-07-16T07:13:24;20.30;99.90
31783;DHT22;18351;47.560;9.708;2023-07-16T07:15:50;20.60;99.90
31783;DHT22;18351;47.560;9.708;2023-07-16T07:18:15;20.90;99.90
31783;DHT22;18351;47.560;9.708;2023-07-16T07:20:41;21.00;99.90
31783;DHT22;18351;47.560;9.708;2023-07-16T07:23:07;21.20;99.90
31783;DHT22;18351;47.560;9.708;2023-07-16T07:25:33;21.40;99.90
31783;DHT22;18351;47.560;9.708;2023-07-16T07:27:59;21.10;99.90
31783;DHT22;18351;47.560;9.708;2023-07-16T07:30:25;21.30;99.90
31783;DHT22;18351;47.560;9.708;2023-07-16T07:32:51;21.70;99.90
31783;DHT22;18351;47.560;9.708;2023-07-16T07:35:16;21.70;99.90
31783;DHT22;18351;47.560;9.708;2023-07-16T07:37:42;21.60;99.90
31783;DHT22;18351;47.560;9.708;2023-07-16T07:40:08;21.80;99.90
31783;DHT22;18351;47.560;9.708;2023-07-16T07:42:33;21.80;99.90
31783;DHT22;18351;47.560;9.708;2023-07-16T07:44:59;21.80;99.90
31783;DHT22;18351;47.560;9.708;2023-07-16T07:47:24;21.90;99.90
31783;DHT22;18351;47.560;9.708;2023-07-16T07:49:52;22.10;99.90
31783;DHT22;18351;47.560;9.708;2023-07-16T07:52:18;22.20;99.90
31783;DHT22;18351;47.560;9.708;2023-07-16T07:54:43;22.40;99.90
31783;DHT22;18351;47.560;9.708;2023-07-16T07:57:09;22.50;99.90
31783;DHT22;18351;47.560;9.708;2023-07-16T07:59:34;22.60;99.90
31783;DHT22;18351;47.560;9.708;2023-07-16T08:02:00;22.90;99.90
31783;DHT22;18351;47.560;9.708;2023-07-16T08:04:29;22.90;99.90
31783;DHT22;18351;47.560;9.708;2023-07-16T08:06:56;22.70;99.90
31783;DHT22;18351;47.560;9.708;2023-07-16T08:09:21;22.80;99.90
31783;DHT22;18351;47.560;9.708;2023-07-16T08:11:47;22.40;99.90
31783;DHT22;18351;47.560;9.708;2023-07-16T08:14:12;22.10;99.90
31783;DHT22;18351;47.560;9.708;2023-07-16T08:16:38;22.00;99.90
31783;DHT22;18351;47.560;9.708;2023-07-16T08:19:03;22.10;99.90
31783;DHT22;18351;47.560;9.708;2023-07-16T08:21:29;22.10;99.90
31783;DHT22;18351;47.560;9.708;2023-07-16T08:23:54;22.20;99.90
31783;DHT22;18351;47.560;9.708;2023-07-16T08:26:20;22.00;99.90
31783;DHT22;18351;47.560;9.708;2023-07-16T08:28:46;22.10;99.90
31783;DHT22;18351;47.560;9.708;2023-07-16T08:31:12;22.20;99.90
31783;DHT22;18351;47.560;9.708;2023-07-16T08:33:38;22.30;99.90
31783;DHT22;18351;47.560;9.708;2023-07-16T08:36:04;22.60;99.90
31783;DHT22;18351;47.560;9.708;2023-07-16T08:38:30;23.00;99.90
31783;DHT22;18351;47.560;9.708;2023-07-16T08:40:56;23.20;99.90
31783;DHT22;18351;47.560;9.708;2023-07-16T08:43:22;23.20;99.90
31783;DHT22;18351;47.560;9.708;2023-07-16T08:45:49;23.60;99.90
31783;DHT22;18351;47.560;9.708;2023-07-16T08:48:16;23.70;99.90
31783;DHT22;18351;47.560;9.708;2023-07-16T08:50:47;23.80;99.90
31783;DHT22;18351;47.560;9.708;2023-07-16T08:53:15;24.20;99.10
31783;DHT22;18351;47.560;9.708;2023-07-16T08:55:44;24.50;99.00
31783;DHT22;18351;47.560;9.708;2023-07-16T08:58:11;24.50;96.60
31783;DHT22;18351;47.560;9.708;2023-07-16T09:00:37;24.40;96.60
31783;DHT22;18351;47.560;9.708;2023-07-16T09:03:03;24.50;97.30
31783;DHT22;18351;47.560;9.708;2023-07-16T09:05:29;24.80;97.00
31783;DHT22;18351;47.560;9.708;2023-07-16T09:07:55;25.00;96.40
31783;DHT22;18351;47.560;9.708;2023-07-16T09:10:21;25.20;96.30
31783;DHT22;18351;47.560;9.708;2023-07-16T09:12:46;25.20;95.50
31783;DHT22;18351;47.560;9.708;2023-07-16T09:15:17;25.10;95.70
31783;DHT22;18351;47.560;9.708;2023-07-16T09:17:48;24.90;96.00
31783;DHT22;18351;47.560;9.708;2023-07-16T09:20:17;24.80;96.40
31783;DHT22;18351;47.560;9.708;2023-07-16T09:22:44;24.60;96.00
31783;DHT22;18351;47.560;9.708;2023-07-16T09:25:10;24.30;96.30
31783;DHT22;18351;47.560;9.708;2023-07-16T09:27:36;24.10;96.50
31783;DHT22;18351;47.560;9.708;2023-07-16T09:30:06;24.20;98.40
31783;DHT22;18351;47.560;9.708;2023-07-16T09:32:36;24.10;95.80
31783;DHT22;18351;47.560;9.708;2023-07-16T09:35:16;24.00;95.90
31783;DHT22;18351;47.560;9.708;2023-07-16T09:37:42;24.20;95.90
31783;DHT22;18351;47.560;9.708;2023-07-16T09:40:10;24.30;95.60
31783;DHT22;18351;47.560;9.708;2023-07-16T09:42:43;24.30;96.30
31783;DHT22;18351;47.560;9.708;2023-07-16T09:45:17;24.60;97.00
31783;DHT22;18351;47.560;9.708;2023-07-16T09:47:43;24.40;94.00
31783;DHT22;18351;47.560;9.708;2023-07-16T09:50:10;24.20;95.40
31783;DHT22;18351;47.560;9.708;2023-07-16T09:52:35;24.00;96.50
31783;DHT22;18351;47.560;9.708;2023-07-16T09:55:03;23.80;96.70
31783;DHT22;18351;47.560;9.708;2023-07-16T09:57:32;23.90;97.30
31783;DHT22;18351;47.560;9.708;2023-07-16T10:00:03;24.10;98.20
31783;DHT22;18351;47.560;9.708;2023-07-16T10:02:33;24.20;97.10
31783;DHT22;18351;47.560;9.708;2023-07-16T10:04:59;24.40;97.00
31783;DHT22;18351;47.560;9.708;2023-07-16T10:07:25;24.40;96.20
31783;DHT22;18351;47.560;9.708;2023-07-16T10:09:54;24.60;96.50
31783;DHT22;18351;47.560;9.708;2023-07-16T10:12:22;24.50;95.30
31783;DHT22;18351;47.560;9.708;2023-07-16T10:14:48;24.30;95.10
31783;DHT22;18351;47.560;9.708;2023-07-16T10:20:06;24.50;95.70
31783;DHT22;18351;47.560;9.708;2023-07-16T10:22:41;24.50;96.00
31783;DHT22;18351;47.560;9.708;2023-07-16T10:27:43;24.60;95.70
31783;DHT22;18351;47.560;9.708;2023-07-16T10:30:09;24.50;94.80
31783;DHT22;18351;47.560;9.708;2023-07-16T10:32:34;24.40;95.10
31783;DHT22;18351;47.560;9.708;2023-07-16T10:35:01;24.60;95.30
31783;DHT22;18351;47.560;9.708;2023-07-16T10:37:27;24.90;95.40
31783;DHT22;18351;47.560;9.708;2023-07-16T10:39:54;25.20;96.30
31783;DHT22;18351;47.560;9.708;2023-07-16T10:42:22;25.40;96.20
31783;DHT22;18351;47.560;9.708;2023-07-16T10:45:07;25.50;94.50
31783;DHT22;18351;47.560;9.708;2023-07-16T10:47:34;25.50;94.50
31783;DHT22;18351;47.560;9.708;2023-07-16T10:50:00;25.10;94.40
31783;DHT22;18351;47.560;9.708;2023-07-16T10:52:28;25.10;94.20
31783;DHT22;18351;47.560;9.708;2023-07-16T10:54:53;25.10;93.60
31783;DHT22;18351;47.560;9.708;2023-07-16T10:57:26;25.10;94.20
31783;DHT22;18351;47.560;9.708;2023-07-16T10:59:53;25.00;94.50
31783;DHT22;18351;47.560;9.708;2023-07-16T11:02:21;25.40;93.70
31783;DHT22;18351;47.560;9.708;2023-07-16T11:04:47;25.60;93.40
31783;DHT22;18351;47.560;9.708;2023-07-16T11:07:14;25.80;92.70
31783;DHT22;18351;47.560;9.708;2023-07-16T11:09:47;25.80;92.80
31783;DHT22;18351;47.560;9.708;2023-07-16T11:12:16;25.80;93.20
31783;DHT22;18351;47.560;9.708;2023-07-16T11:14:44;26.30;93.70
31783;DHT22;18351;47.560;9.708;2023-07-16T11:17:13;26.60;92.40
31783;DHT22;18351;47.560;9.708;2023-07-16T11:19:39;26.60;92.40
31783;DHT22;18351;47.560;9.708;2023-07-16T11:22:07;26.30;92.10
31783;DHT22;18351;47.560;9.708;2023-07-16T11:24:38;26.20;92.90
31783;DHT22;18351;47.560;9.708;2023-07-16T11:27:03;26.30;92.50
31783;DHT22;18351;47.560;9.708;2023-07-16T11:29:35;26.30;91.60
31783;DHT22;18351;47.560;9.708;2023-07-16T11:32:04;26.00;92.50
31783;DHT22;18351;47.560;9.708;2023-07-16T11:34:30;25.80;91.20
31783;DHT22;18351;47.560;9.708;2023-07-16T11:37:07;25.80;92.80
31783;DHT22;18351;47.560;9.708;2023-07-16T11:39:33;25.80;91.00
31783;DHT22;18351;47.560;9.708;2023-07-16T11:41:58;25.70;91.80
31783;DHT22;18351;47.560;9.708;2023-07-16T11:44:24;25.50;92.20
31783;DHT22;18351;47.560;9.708;2023-07-16T11:46:50;25.30;91.50
31783;DHT22;18351;47.560;9.708;2023-07-16T11:49:15;25.30;93.40
31783;DHT22;18351;47.560;9.708;2023-07-16T11:51:41;25.30;92.20
31783;DHT22;18351;47.560;9.708;2023-07-16T11:54:09;25.40;92.30
31783;DHT22;18351;47.560;9.708;2023-07-16T11:56:35;25.50;92.80
31783;DHT22;18351;47.560;9.708;2023-07-16T11:59:00;25.60;91.70
31783;DHT22;18351;47.560;9.708;2023-07-16T12:01:26;25.60;92.60
31783;DHT22;18351;47.560;9.708;2023-07-16T12:03:51;25.60;93.20
31783;DHT22;18351;47.560;9.708;2023-07-16T12:06:17;25.50;92.40
31783;DHT22;18351;47.560;9.708;2023-07-16T12:08:42;25.60;92.10
31783;DHT22;18351;47.560;9.708;2023-07-16T12:11:08;25.60;92.00
31783;DHT22;18351;47.560;9.708;2023-07-16T12:13:33;25.60;91.60
31783;DHT22;18351;47.560;9.708;2023-07-16T12:15:59;25.30;91.80
31783;DHT22;18351;47.560;9.708;2023-07-16T12:18:25;25.40;92.20
31783;DHT22;18351;47.560;9.708;2023-07-16T12:20:50;25.70;91.20
31783;DHT22;18351;47.560;9.708;2023-07-16T12:23:16;25.90;91.50
31783;DHT22;18351;47.560;9.708;2023-07-16T12:25:41;26.00;92.80
31783;DHT22;18351;47.560;9.708;2023-07-16T12:28:08;26.20;92.00
31783;DHT22;18351;47.560;9.708;2023-07-16T12:30:34;26.40;91.70
31783;DHT22;18351;47.560;9.708;2023-07-16T12:33:00;26.20;91.10
31783;DHT22;18351;47.560;9.708;2023-07-16T12:35:25;25.90;91.90
31783;DHT22;18351;47.560;9.708;2023-07-16T12:37:51;25.80;91.10
31783;DHT22;18351;47.560;9.708;2023-07-16T12:40:17;25.80;91.00
31783;DHT22;18351;47.560;9.708;2023-07-16T12:42:42;25.90;92.30
31783;DHT22;18351;47.560;9.708;2023-07-16T12:45:08;26.00;90.90
31783;DHT22;18351;47.560;9.708;2023-07-16T12:47:34;26.00;90.40
31783;DHT22;18351;47.560;9.708;2023-07-16T12:50:00;25.90;91.40
31783;DHT22;18351;47.560;9.708;2023-07-16T12:52:26;26.00;90.50
31783;DHT22;18351;47.560;9.708;2023-07-16T12:54:51;26.00;91.20
31783;DHT22;18351;47.560;9.708;2023-07-16T12:57:17;26.00;89.70
31783;DHT22;18351;47.560;9.708;2023-07-16T12:59:43;26.00;89.10
31783;DHT22;18351;47.560;9.708;2023-07-16T13:02:08;26.10;89.60
31783;DHT22;18351;47.560;9.708;2023-07-16T13:04:34;26.40;90.40
31783;DHT22;18351;47.560;9.708;2023-07-16T13:07:00;26.70;90.10
31783;DHT22;18351;47.560;9.708;2023-07-16T13:09:25;26.70;88.30
31783;DHT22;18351;47.560;9.708;2023-07-16T13:11:51;26.70;91.20
31783;DHT22;18351;47.560;9.708;2023-07-16T13:14:17;26.80;90.70
31783;DHT22;18351;47.560;9.708;2023-07-16T13:16:43;27.00;92.40
31783;DHT22;18351;47.560;9.708;2023-07-16T13:19:08;27.00;90.20
31783;DHT22;18351;47.560;9.708;2023-07-16T13:21:34;27.00;88.90
31783;DHT22;18351;47.560;9.708;2023-07-16T13:23:59;27.00;90.20
31783;DHT22;18351;47.560;9.708;2023-07-16T13:26:25;27.00;88.80
31783;DHT22;18351;47.560;9.708;2023-07-16T13:28:51;26.80;88.90
31783;DHT22;18351;47.560;9.708;2023-07-16T13:31:18;26.60;90.20
31783;DHT22;18351;47.560;9.708;2023-07-16T13:33:43;26.80;90.50
31783;DHT22;18351;47.560;9.708;2023-07-16T13:36:09;27.10;90.40
31783;DHT22;18351;47.560;9.708;2023-07-16T13:38:34;27.50;90.00
31783;DHT22;18351;47.560;9.708;2023-07-16T13:41:00;27.60;89.60
31783;DHT22;18351;47.560;9.708;2023-07-16T13:43:25;27.80;86.70
31783;DHT22;18351;47.560;9.708;2023-07-16T13:45:51;27.80;85.00
31783;DHT22;18351;47.560;9.708;2023-07-16T13:48:17;27.90;90.30
31783;DHT22;18351;47.560;9.708;2023-07-16T13:50:42;27.90;86.00
31783;DHT22;18351;47.560;9.708;2023-07-16T13:53:08;27.80;87.10
31783;DHT22;18351;47.560;9.708;2023-07-16T13:55:33;27.90;86.20
31783;DHT22;18351;47.560;9.708;2023-07-16T13:57:59;27.90;84.40
31783;DHT22;18351;47.560;9.708;2023-07-16T14:00:25;27.90;87.00
31783;DHT22;18351;47.560;9.708;2023-07-16T14:02:51;27.80;85.50
31783;DHT22;18351;47.560;9.708;2023-07-16T14:05:16;27.50;86.00
31783;DHT22;18351;47.560;9.708;2023-07-16T14:07:42;27.20;85.60
31783;DHT22;18351;47.560;9.708;2023-07-16T14:10:08;26.90;87.90
31783;DHT22;18351;47.560;9.708;2023-07-16T14:12:33;27.00;90.00
31783;DHT22;18351;47.560;9.708;2023-07-16T14:15:00;27.00;90.10
31783;DHT22;18351;47.560;9.708;2023-07-16T14:17:25;27.00;89.70
31783;DHT22;18351;47.560;9.708;2023-07-16T14:19:51;26.90;90.00
31783;DHT22;18351;47.560;9.708;2023-07-16T14:22:17;26.90;90.50
31783;DHT22;18351;47.560;9.708;2023-07-16T14:24:42;26.80;90.80
31783;DHT22;18351;47.560;9.708;2023-07-16T14:27:08;26.80;90.60
31783;DHT22;18351;47.560;9.708;2023-07-16T14:29:36;27.00;90.30
31783;DHT22;18351;47.560;9.708;2023-07-16T14:32:02;27.10;89.60
31783;DHT22;18351;47.560;9.708;2023-07-16T14:34:28;27.10;88.10
31783;DHT22;18351;47.560;9.708;2023-07-16T14:36:54;27.10;90.20
31783;DHT22;18351;47.560;9.708;2023-07-16T14:39:19;27.20;90.20
31783;DHT22;18351;47.560;9.708;2023-07-16T14:41:45;27.30;89.00
31783;DHT22;18351;47.560;9.708;2023-07-16T14:44:11;27.30;89.80
31783;DHT22;18351;47.560;9.708;2023-07-16T14:46:37;27.20;89.10
31783;DHT22;18351;47.560;9.708;2023-07-16T14:49:03;26.90;89.90
31783;DHT22;18351;47.560;9.708;2023-07-16T14:51:28;26.80;89.60
31783;DHT22;18351;47.560;9.708;2023-07-16T14:53:55;26.80;89.10
31783;DHT22;18351;47.560;9.708;2023-07-16T14:56:21;26.80;90.90
31783;DHT22;18351;47.560;9.708;2023-07-16T14:58:46;27.00;89.90
31783;DHT22;18351;47.560;9.708;2023-07-16T15:01:12;27.00;88.50
31783;DHT22;18351;47.560;9.708;2023-07-16T15:03:37;26.90;86.90
31783;DHT22;18351;47.560;9.708;2023-07-16T15:06:05;26.80;86.20
31783;DHT22;18351;47.560;9.708;2023-07-16T15:08:31;26.60;86.60
31783;DHT22;18351;47.560;9.708;2023-07-16T15:10:58;26.60;87.50
31783;DHT22;18351;47.560;9.708;2023-07-16T15:13:24;26.60;86.10
31783;DHT22;18351;47.560;9.708;2023-07-16T15:15:54;26.50;84.00
31783;DHT22;18351;47.560;9.708;2023-07-16T15:18:20;26.50;85.00
31783;DHT22;18351;47.560;9.708;2023-07-16T15:20:47;26.60;87.30
31783;DHT22;18351;47.560;9.708;2023-07-16T15:23:12;26.80;83.90
31783;DHT22;18351;47.560;9.708;2023-07-16T15:25:41;26.90;83.80
31783;DHT22;18351;47.560;9.708;2023-07-16T15:28:06;27.10;84.10
31783;DHT22;18351;47.560;9.708;2023-07-16T15:30:32;27.10;83.60
31783;DHT22;18351;47.560;9.708;2023-07-16T15:32:57;27.20;81.40
31783;DHT22;18351;47.560;9.708;2023-07-16T15:35:23;27.20;85.60